Main page
METAR-TAF:

METAR-TAF

Airports :

Granbury Regional Airport

Granbury, Texas, United States

latitude: 32-26-39N, longitude: 097-49W, elevation: 777 ft

Current weather observation

The report was made 44 minutes ago, at 16:55 UTC
Wind 8 mph from the South
Temperature 88°F
Humidity 52%
Pressure 29.95 in. Hg
Visibility: 10 miles
Broken clouds at a height of 4000 ft

METAR: KGDJ 151655Z AUTO 17007KT 10SM BKN040 31/20 A2995 RMK AO2 T03080202

Time: 12:39 (17:39 UTC)


TAF: missing

Weather observations and forecasts of more than 4000 airports (METAR and TAF reports).

The available stations are represented by yellow and red dots on the map.

Hover mouse over dot to see the name of the station.

Then click to see weather observations and forecasts.

To change the map : click on the green buttons with a black cross to zoom in, on the green button with a dash to zoom out, or on the green arrows for adjacent maps.


METAR-TAF: